sensor_id;sensor_type;location;lat;lon;timestamp;temperature;humidity
54796;DHT22;40693;43.884;20.340;2023-09-18T00:00:25;538.00;2406.40
54796;DHT22;40693;43.884;20.340;2023-09-18T00:02:51;538.00;2406.40
54796;DHT22;40693;43.884;20.340;2023-09-18T00:05:16;538.00;2406.40
54796;DHT22;40693;43.884;20.340;2023-09-18T00:07:43;538.00;2406.40
54796;DHT22;40693;43.884;20.340;2023-09-18T00:10:12;538.00;2406.40
54796;DHT22;40693;43.884;20.340;2023-09-18T00:12:39;538.00;2406.40
54796;DHT22;40693;43.884;20.340;2023-09-18T00:15:06;537.90;2406.40
54796;DHT22;40693;43.884;20.340;2023-09-18T00:17:35;537.90;2406.40
54796;DHT22;40693;43.884;20.340;2023-09-18T00:20:01;537.90;2406.40
54796;DHT22;40693;43.884;20.340;2023-09-18T00:22:28;537.90;2406.40
54796;DHT22;40693;43.884;20.340;2023-09-18T00:24:54;537.90;2406.40
54796;DHT22;40693;43.884;20.340;2023-09-18T00:27:20;537.90;2406.40
54796;DHT22;40693;43.884;20.340;2023-09-18T00:29:46;537.90;2406.40
54796;DHT22;40693;43.884;20.340;2023-09-18T00:32:11;537.90;2406.40
54796;DHT22;40693;43.884;20.340;2023-09-18T00:34:37;537.90;2406.40
54796;DHT22;40693;43.884;20.340;2023-09-18T00:37:03;537.90;2406.40
54796;DHT22;40693;43.884;20.340;2023-09-18T00:39:28;537.80;2406.40
54796;DHT22;40693;43.884;20.340;2023-09-18T00:41:54;537.80;2406.40
54796;DHT22;40693;43.884;20.340;2023-09-18T00:44:20;537.70;2406.40
54796;DHT22;40693;43.884;20.340;2023-09-18T00:46:48;537.60;2406.40
54796;DHT22;40693;43.884;20.340;2023-09-18T00:49:15;537.60;2406.40
54796;DHT22;40693;43.884;20.340;2023-09-18T00:51:41;537.60;2406.40
54796;DHT22;40693;43.884;20.340;2023-09-18T00:54:07;537.60;2406.40
54796;DHT22;40693;43.884;20.340;2023-09-18T00:56:33;537.60;2406.40
54796;DHT22;40693;43.884;20.340;2023-09-18T00:59:00;537.60;2406.40
54796;DHT22;40693;43.884;20.340;2023-09-18T01:01:28;512.90;2380.80
54796;DHT22;40693;43.884;20.340;2023-09-18T01:03:56;512.90;2380.80
54796;DHT22;40693;43.884;20.340;2023-09-18T01:06:25;512.90;2380.80
54796;DHT22;40693;43.884;20.340;2023-09-18T01:08:53;512.90;2380.80
54796;DHT22;40693;43.884;20.340;2023-09-18T01:11:30;512.80;2380.80
54796;DHT22;40693;43.884;20.340;2023-09-18T01:14:10;512.80;2380.80
54796;DHT22;40693;43.884;20.340;2023-09-18T01:16:58;512.70;2380.80
54796;DHT22;40693;43.884;20.340;2023-09-18T01:19:44;512.70;2380.80
54796;DHT22;40693;43.884;20.340;2023-09-18T01:22:15;512.60;2380.80
54796;DHT22;40693;43.884;20.340;2023-09-18T01:24:42;512.60;2380.80
54796;DHT22;40693;43.884;20.340;2023-09-18T01:27:13;512.60;2380.80
54796;DHT22;40693;43.884;20.340;2023-09-18T01:29:39;512.60;2380.80
54796;DHT22;40693;43.884;20.340;2023-09-18T01:32:05;512.60;2380.80
54796;DHT22;40693;43.884;20.340;2023-09-18T01:34:49;512.60;2380.80
54796;DHT22;40693;43.884;20.340;2023-09-18T01:37:17;512.60;2380.80
54796;DHT22;40693;43.884;20.340;2023-09-18T01:39:46;512.60;2380.80
54796;DHT22;40693;43.884;20.340;2023-09-18T01:42:13;512.60;2380.80
54796;DHT22;40693;43.884;20.340;2023-09-18T01:44:39;512.60;2380.80
54796;DHT22;40693;43.884;20.340;2023-09-18T01:47:08;512.60;2380.80
54796;DHT22;40693;43.884;20.340;2023-09-18T01:49:39;512.70;2380.80
54796;DHT22;40693;43.884;20.340;2023-09-18T01:52:06;512.70;2380.80
54796;DHT22;40693;43.884;20.340;2023-09-18T01:54:32;512.60;2380.80
54796;DHT22;40693;43.884;20.340;2023-09-18T01:56:59;512.60;2380.80
54796;DHT22;40693;43.884;20.340;2023-09-18T01:59:25;512.60;2380.80
54796;DHT22;40693;43.884;20.340;2023-09-18T02:01:52;512.50;2380.80
54796;DHT22;40693;43.884;20.340;2023-09-18T02:04:19;512.50;2380.80
54796;DHT22;40693;43.884;20.340;2023-09-18T02:06:46;512.40;2380.80
54796;DHT22;40693;43.884;20.340;2023-09-18T02:09:13;512.30;2380.80
54796;DHT22;40693;43.884;20.340;2023-09-18T02:11:40;512.40;2380.80
54796;DHT22;40693;43.884;20.340;2023-09-18T02:14:07;512.40;2380.80
54796;DHT22;40693;43.884;20.340;2023-09-18T02:16:34;512.20;2380.80
54796;DHT22;40693;43.884;20.340;2023-09-18T02:19:02;512.10;2380.80
54796;DHT22;40693;43.884;20.340;2023-09-18T02:21:28;512.30;2380.80
54796;DHT22;40693;43.884;20.340;2023-09-18T02:23:54;512.20;2380.80
54796;DHT22;40693;43.884;20.340;2023-09-18T02:26:21;512.20;2380.80
54796;DHT22;40693;43.884;20.340;2023-09-18T02:28:48;512.20;2380.80
54796;DHT22;40693;43.884;20.340;2023-09-18T02:31:14;512.10;2380.80
54796;DHT22;40693;43.884;20.340;2023-09-18T02:33:40;512.10;2380.80
54796;DHT22;40693;43.884;20.340;2023-09-18T02:36:06;512.10;2380.80
54796;DHT22;40693;43.884;20.340;2023-09-18T02:38:33;512.10;2380.80
54796;DHT22;40693;43.884;20.340;2023-09-18T02:40:59;512.20;2380.80
54796;DHT22;40693;43.884;20.340;2023-09-18T02:43:25;512.20;2380.80
54796;DHT22;40693;43.884;20.340;2023-09-18T02:45:51;512.20;2380.80
54796;DHT22;40693;43.884;20.340;2023-09-18T02:48:17;512.20;2380.80
54796;DHT22;40693;43.884;20.340;2023-09-18T02:50:43;512.20;2380.80
54796;DHT22;40693;43.884;20.340;2023-09-18T02:53:23;512.10;2380.80
54796;DHT22;40693;43.884;20.340;2023-09-18T02:55:53;512.10;2380.80
54796;DHT22;40693;43.884;20.340;2023-09-18T02:58:19;512.10;2380.80
54796;DHT22;40693;43.884;20.340;2023-09-18T03:00:47;512.10;2380.80
54796;DHT22;40693;43.884;20.340;2023-09-18T03:03:14;512.10;2380.80
54796;DHT22;40693;43.884;20.340;2023-09-18T03:05:41;512.10;2380.80
54796;DHT22;40693;43.884;20.340;2023-09-18T03:08:08;512.10;2380.80
54796;DHT22;40693;43.884;20.340;2023-09-18T03:10:37;512.20;2380.80
54796;DHT22;40693;43.884;20.340;2023-09-18T03:13:06;512.20;2380.80
54796;DHT22;40693;43.884;20.340;2023-09-18T03:15:32;512.20;2380.80
54796;DHT22;40693;43.884;20.340;2023-09-18T03:17:59;512.20;2380.80
54796;DHT22;40693;43.884;20.340;2023-09-18T03:20:26;512.20;2380.80
54796;DHT22;40693;43.884;20.340;2023-09-18T03:22:54;512.30;2380.80
54796;DHT22;40693;43.884;20.340;2023-09-18T03:25:20;512.30;2380.80
54796;DHT22;40693;43.884;20.340;2023-09-18T03:27:47;512.30;2380.80
54796;DHT22;40693;43.884;20.340;2023-09-18T03:30:13;512.30;2380.80
54796;DHT22;40693;43.884;20.340;2023-09-18T03:32:42;512.20;2380.80
54796;DHT22;40693;43.884;20.340;2023-09-18T03:35:09;512.30;2380.80
54796;DHT22;40693;43.884;20.340;2023-09-18T03:37:41;512.30;2380.80
54796;DHT22;40693;43.884;20.340;2023-09-18T03:40:08;512.40;2380.80
54796;DHT22;40693;43.884;20.340;2023-09-18T03:42:34;512.40;2380.80
54796;DHT22;40693;43.884;20.340;2023-09-18T03:45:00;512.40;2380.80
54796;DHT22;40693;43.884;20.340;2023-09-18T03:47:25;512.40;2380.80
54796;DHT22;40693;43.884;20.340;2023-09-18T03:49:51;512.50;2380.80
54796;DHT22;40693;43.884;20.340;2023-09-18T03:52:17;512.50;2380.80
54796;DHT22;40693;43.884;20.340;2023-09-18T03:54:43;512.50;2380.80
54796;DHT22;40693;43.884;20.340;2023-09-18T03:57:08;512.60;2380.80
54796;DHT22;40693;43.884;20.340;2023-09-18T03:59:34;512.60;2380.80
54796;DHT22;40693;43.884;20.340;2023-09-18T04:02:00;512.60;2380.80
54796;DHT22;40693;43.884;20.340;2023-09-18T04:04:26;512.70;2380.80
54796;DHT22;40693;43.884;20.340;2023-09-18T04:06:54;512.70;2380.80
54796;DHT22;40693;43.884;20.340;2023-09-18T04:09:19;512.80;2380.80
54796;DHT22;40693;43.884;20.340;2023-09-18T04:11:45;512.70;2380.80
54796;DHT22;40693;43.884;20.340;2023-09-18T04:14:11;512.80;2380.80
54796;DHT22;40693;43.884;20.340;2023-09-18T04:16:36;512.80;2380.80
54796;DHT22;40693;43.884;20.340;2023-09-18T04:19:05;512.80;2380.80
54796;DHT22;40693;43.884;20.340;2023-09-18T04:21:30;512.80;2380.80
54796;DHT22;40693;43.884;20.340;2023-09-18T04:23:56;512.80;2380.80
54796;DHT22;40693;43.884;20.340;2023-09-18T04:26:24;512.80;2380.80
54796;DHT22;40693;43.884;20.340;2023-09-18T04:28:55;512.80;2380.80
54796;DHT22;40693;43.884;20.340;2023-09-18T04:31:21;537.60;2406.40
54796;DHT22;40693;43.884;20.340;2023-09-18T04:33:46;512.80;2380.80
54796;DHT22;40693;43.884;20.340;2023-09-18T04:36:12;512.80;2380.80
54796;DHT22;40693;43.884;20.340;2023-09-18T04:38:38;512.80;2380.80
54796;DHT22;40693;43.884;20.340;2023-09-18T04:41:03;512.70;2380.80
54796;DHT22;40693;43.884;20.340;2023-09-18T04:43:29;512.80;2380.80
54796;DHT22;40693;43.884;20.340;2023-09-18T04:45:56;512.80;2380.80
54796;DHT22;40693;43.884;20.340;2023-09-18T04:48:21;512.80;2380.80
54796;DHT22;40693;43.884;20.340;2023-09-18T04:50:48;512.80;2380.80
54796;DHT22;40693;43.884;20.340;2023-09-18T04:53:14;512.80;2380.80
54796;DHT22;40693;43.884;20.340;2023-09-18T04:55:40;512.80;2380.80
54796;DHT22;40693;43.884;20.340;2023-09-18T04:58:05;512.80;2380.80
54796;DHT22;40693;43.884;20.340;2023-09-18T05:00:32;512.80;2380.80
54796;DHT22;40693;43.884;20.340;2023-09-18T05:02:59;512.80;2380.80
54796;DHT22;40693;43.884;20.340;2023-09-18T05:05:28;512.90;2380.80
54796;DHT22;40693;43.884;20.340;2023-09-18T05:07:54;512.90;2380.80
54796;DHT22;40693;43.884;20.340;2023-09-18T05:10:20;512.90;2380.80
54796;DHT22;40693;43.884;20.340;2023-09-18T05:12:46;512.90;2380.80
54796;DHT22;40693;43.884;20.340;2023-09-18T05:15:12;512.90;2380.80
54796;DHT22;40693;43.884;20.340;2023-09-18T05:17:46;537.60;2406.40
54796;DHT22;40693;43.884;20.340;2023-09-18T05:20:13;537.60;2406.40
54796;DHT22;40693;43.884;20.340;2023-09-18T05:22:44;512.90;2380.80
54796;DHT22;40693;43.884;20.340;2023-09-18T05:25:11;512.90;2380.80
54796;DHT22;40693;43.884;20.340;2023-09-18T05:27:37;512.90;2380.80
54796;DHT22;40693;43.884;20.340;2023-09-18T05:30:11;512.80;2380.80
54796;DHT22;40693;43.884;20.340;2023-09-18T05:32:38;512.90;2380.80
54796;DHT22;40693;43.884;20.340;2023-09-18T05:35:04;512.80;2380.80
54796;DHT22;40693;43.884;20.340;2023-09-18T05:37:32;512.70;2380.80
54796;DHT22;40693;43.884;20.340;2023-09-18T05:39:58;512.70;2380.80
54796;DHT22;40693;43.884;20.340;2023-09-18T05:42:24;512.80;2380.80
54796;DHT22;40693;43.884;20.340;2023-09-18T05:44:50;512.80;2380.80
54796;DHT22;40693;43.884;20.340;2023-09-18T05:47:16;512.90;2380.80
54796;DHT22;40693;43.884;20.340;2023-09-18T05:49:41;537.60;2406.40
54796;DHT22;40693;43.884;20.340;2023-09-18T05:52:07;537.70;2406.40
54796;DHT22;40693;43.884;20.340;2023-09-18T05:54:33;537.70;2406.40
54796;DHT22;40693;43.884;20.340;2023-09-18T05:56:59;537.70;2406.40
54796;DHT22;40693;43.884;20.340;2023-09-18T05:59:25;537.80;2406.40
54796;DHT22;40693;43.884;20.340;2023-09-18T06:01:50;537.90;2406.40
54796;DHT22;40693;43.884;20.340;2023-09-18T06:04:19;537.90;2406.40
54796;DHT22;40693;43.884;20.340;2023-09-18T06:06:45;537.90;2406.40
54796;DHT22;40693;43.884;20.340;2023-09-18T06:09:11;537.90;2406.40
54796;DHT22;40693;43.884;20.340;2023-09-18T06:11:38;538.00;2406.40
54796;DHT22;40693;43.884;20.340;2023-09-18T06:14:03;537.90;2406.40
54796;DHT22;40693;43.884;20.340;2023-09-18T06:16:30;537.90;2406.40
54796;DHT22;40693;43.884;20.340;2023-09-18T06:18:56;537.90;2406.40
54796;DHT22;40693;43.884;20.340;2023-09-18T06:21:22;537.90;2406.40
54796;DHT22;40693;43.884;20.340;2023-09-18T06:23:48;537.80;2406.40
54796;DHT22;40693;43.884;20.340;2023-09-18T06:26:13;537.80;2406.40
54796;DHT22;40693;43.884;20.340;2023-09-18T06:28:40;537.80;2406.40
54796;DHT22;40693;43.884;20.340;2023-09-18T06:31:05;537.90;2406.40
54796;DHT22;40693;43.884;20.340;2023-09-18T06:33:31;538.00;2406.40
54796;DHT22;40693;43.884;20.340;2023-09-18T06:35:57;537.90;2406.40
54796;DHT22;40693;43.884;20.340;2023-09-18T06:38:23;537.90;2406.40
54796;DHT22;40693;43.884;20.340;2023-09-18T06:40:49;538.00;2406.40
54796;DHT22;40693;43.884;20.340;2023-09-18T06:43:15;538.00;2406.40
54796;DHT22;40693;43.884;20.340;2023-09-18T06:45:41;538.00;2406.40
54796;DHT22;40693;43.884;20.340;2023-09-18T06:48:07;538.10;2406.40
54796;DHT22;40693;43.884;20.340;2023-09-18T06:50:32;538.10;2406.40
54796;DHT22;40693;43.884;20.340;2023-09-18T06:52:58;538.10;2406.40
54796;DHT22;40693;43.884;20.340;2023-09-18T06:55:24;538.10;2406.40
54796;DHT22;40693;43.884;20.340;2023-09-18T06:57:50;538.20;2406.40
54796;DHT22;40693;43.884;20.340;2023-09-18T07:00:17;538.20;2406.40
54796;DHT22;40693;43.884;20.340;2023-09-18T07:02:46;538.20;2406.40
54796;DHT22;40693;43.884;20.340;2023-09-18T07:05:14;538.30;2406.40
54796;DHT22;40693;43.884;20.340;2023-09-18T07:07:40;538.40;2406.40
54796;DHT22;40693;43.884;20.340;2023-09-18T07:10:06;538.30;2406.40
54796;DHT22;40693;43.884;20.340;2023-09-18T07:12:39;538.50;2406.40
54796;DHT22;40693;43.884;20.340;2023-09-18T07:15:06;563.20;2432.00
54796;DHT22;40693;43.884;20.340;2023-09-18T07:17:33;563.40;2432.00
54796;DHT22;40693;43.884;20.340;2023-09-18T07:19:58;563.40;2432.00
54796;DHT22;40693;43.884;20.340;2023-09-18T07:22:25;563.50;2432.00
54796;DHT22;40693;43.884;20.340;2023-09-18T07:24:51;563.70;2432.00
54796;DHT22;40693;43.884;20.340;2023-09-18T07:27:17;563.70;2432.00
54796;DHT22;40693;43.884;20.340;2023-09-18T07:29:42;563.80;2432.00
54796;DHT22;40693;43.884;20.340;2023-09-18T07:32:08;564.00;2432.00
54796;DHT22;40693;43.884;20.340;2023-09-18T07:34:35;564.10;2432.00
54796;DHT22;40693;43.884;20.340;2023-09-18T07:37:01;588.80;2432.00
54796;DHT22;40693;43.884;20.340;2023-09-18T07:39:26;588.80;2432.00
54796;DHT22;40693;43.884;20.340;2023-09-18T07:41:52;589.00;2432.00
54796;DHT22;40693;43.884;20.340;2023-09-18T07:44:21;589.00;2432.00
54796;DHT22;40693;43.884;20.340;2023-09-18T07:46:47;588.80;2432.00
54796;DHT22;40693;43.884;20.340;2023-09-18T07:49:13;588.80;2432.00
54796;DHT22;40693;43.884;20.340;2023-09-18T07:51:41;588.80;2432.00
54796;DHT22;40693;43.884;20.340;2023-09-18T07:54:09;589.00;2432.00
54796;DHT22;40693;43.884;20.340;2023-09-18T07:56:35;589.10;2432.00
54796;DHT22;40693;43.884;20.340;2023-09-18T07:59:01;589.10;2432.00
54796;DHT22;40693;43.884;20.340;2023-09-18T08:01:28;589.20;2432.00
54796;DHT22;40693;43.884;20.340;2023-09-18T08:03:54;589.30;2432.00
54796;DHT22;40693;43.884;20.340;2023-09-18T08:06:19;589.30;2432.00
54796;DHT22;40693;43.884;20.340;2023-09-18T08:08:47;589.50;2432.00
54796;DHT22;40693;43.884;20.340;2023-09-18T08:11:13;589.70;2432.00
54796;DHT22;40693;43.884;20.340;2023-09-18T08:13:38;614.40;2432.00
54796;DHT22;40693;43.884;20.340;2023-09-18T08:16:07;614.60;2432.00
54796;DHT22;40693;43.884;20.340;2023-09-18T08:18:33;614.70;2432.00
54796;DHT22;40693;43.884;20.340;2023-09-18T08:21:00;614.80;2432.00
54796;DHT22;40693;43.884;20.340;2023-09-18T08:23:26;615.10;2432.00
54796;DHT22;40693;43.884;20.340;2023-09-18T08:25:52;615.20;2432.00
54796;DHT22;40693;43.884;20.340;2023-09-18T08:28:21;615.30;2432.00
54796;DHT22;40693;43.884;20.340;2023-09-18T08:30:47;640.10;2432.00
54796;DHT22;40693;43.884;20.340;2023-09-18T08:33:13;640.10;2432.00
54796;DHT22;40693;43.884;20.340;2023-09-18T08:35:39;640.20;2432.00
54796;DHT22;40693;43.884;20.340;2023-09-18T08:38:05;640.40;2432.00
54796;DHT22;40693;43.884;20.340;2023-09-18T08:40:33;640.30;2432.00
54796;DHT22;40693;43.884;20.340;2023-09-18T08:42:59;640.40;2432.00
54796;DHT22;40693;43.884;20.340;2023-09-18T08:45:34;640.60;2432.00
54796;DHT22;40693;43.884;20.340;2023-09-18T08:48:00;640.70;2432.00
54796;DHT22;40693;43.884;20.340;2023-09-18T08:50:27;640.80;2432.00
54796;DHT22;40693;43.884;20.340;2023-09-18T08:52:53;640.80;2432.00
54796;DHT22;40693;43.884;20.340;2023-09-18T08:55:20;665.60;2432.00
54796;DHT22;40693;43.884;20.340;2023-09-18T08:57:46;665.70;2432.00
54796;DHT22;40693;43.884;20.340;2023-09-18T09:00:13;665.80;2432.00
54796;DHT22;40693;43.884;20.340;2023-09-18T09:02:43;665.90;2432.00
54796;DHT22;40693;43.884;20.340;2023-09-18T09:05:09;666.00;2432.00
54796;DHT22;40693;43.884;20.340;2023-09-18T09:07:34;666.20;2432.00
54796;DHT22;40693;43.884;20.340;2023-09-18T09:10:00;666.20;2432.00
54796;DHT22;40693;43.884;20.340;2023-09-18T09:15:14;691.20;2432.00
54796;DHT22;40693;43.884;20.340;2023-09-18T09:17:41;691.30;2432.00
54796;DHT22;40693;43.884;20.340;2023-09-18T09:20:12;691.30;2432.00
54796;DHT22;40693;43.884;20.340;2023-09-18T09:22:39;691.20;2432.00
54796;DHT22;40693;43.884;20.340;2023-09-18T09:25:22;666.20;2432.00
54796;DHT22;40693;43.884;20.340;2023-09-18T09:27:48;691.40;2432.00
54796;DHT22;40693;43.884;20.340;2023-09-18T09:30:23;691.60;2432.00
54796;DHT22;40693;43.884;20.340;2023-09-18T09:32:50;691.70;2432.00
54796;DHT22;40693;43.884;20.340;2023-09-18T09:35:36;691.80;2432.00
54796;DHT22;40693;43.884;20.340;2023-09-18T09:38:12;691.90;2432.00
54796;DHT22;40693;43.884;20.340;2023-09-18T09:40:41;691.90;2432.00
54796;DHT22;40693;43.884;20.340;2023-09-18T09:43:10;692.10;2432.00
54796;DHT22;40693;43.884;20.340;2023-09-18T09:45:36;692.10;2432.00
54796;DHT22;40693;43.884;20.340;2023-09-18T09:48:04;692.10;2432.00
54796;DHT22;40693;43.884;20.340;2023-09-18T09:50:31;716.90;2432.00
54796;DHT22;40693;43.884;20.340;2023-09-18T09:52:58;717.20;2432.00
54796;DHT22;40693;43.884;20.340;2023-09-18T09:55:31;717.30;2432.00
54796;DHT22;40693;43.884;20.340;2023-09-18T09:58:04;717.50;2432.00
54796;DHT22;40693;43.884;20.340;2023-09-18T10:00:35;717.50;2432.00
54796;DHT22;40693;43.884;20.340;2023-09-18T10:03:19;717.60;2406.40
54796;DHT22;40693;43.884;20.340;2023-09-18T10:05:47;742.50;2432.00
54796;DHT22;40693;43.884;20.340;2023-09-18T10:08:23;717.70;2304.00
54796;DHT22;40693;43.884;20.340;2023-09-18T10:10:53;742.40;2406.40
54796;DHT22;40693;43.884;20.340;2023-09-18T10:15:54;742.50;2304.00
54796;DHT22;40693;43.884;20.340;2023-09-18T10:20:51;742.90;2329.60
54796;DHT22;40693;43.884;20.340;2023-09-18T10:26:44;743.10;2227.20
54796;DHT22;40693;43.884;20.340;2023-09-18T10:29:14;743.10;2227.20
54796;DHT22;40693;43.884;20.340;2023-09-18T10:31:41;743.20;2176.00
54796;DHT22;40693;43.884;20.340;2023-09-18T10:34:09;768.00;2150.40
54796;DHT22;40693;43.884;20.340;2023-09-18T10:36:37;768.20;2150.40
54796;DHT22;40693;43.884;20.340;2023-09-18T10:39:05;768.20;2150.40
54796;DHT22;40693;43.884;20.340;2023-09-18T10:41:36;768.30;2124.80
54796;DHT22;40693;43.884;20.340;2023-09-18T10:44:04;768.30;2073.60
54796;DHT22;40693;43.884;20.340;2023-09-18T10:46:30;768.40;2099.20
54796;DHT22;40693;43.884;20.340;2023-09-18T10:48:59;768.50;2073.60
54796;DHT22;40693;43.884;20.340;2023-09-18T10:51:26;768.60;2073.60
54796;DHT22;40693;43.884;20.340;2023-09-18T10:53:52;768.90;2022.40
54796;DHT22;40693;43.884;20.340;2023-09-18T10:56:21;768.70;1996.80
54796;DHT22;40693;43.884;20.340;2023-09-18T10:58:55;768.90;1971.20
54796;DHT22;40693;43.884;20.340;2023-09-18T11:01:23;768.60;1945.60
54796;DHT22;40693;43.884;20.340;2023-09-18T11:03:50;768.90;1996.80
54796;DHT22;40693;43.884;20.340;2023-09-18T11:06:16;768.80;1945.60
54796;DHT22;40693;43.884;20.340;2023-09-18T11:08:44;768.70;1996.80
54796;DHT22;40693;43.884;20.340;2023-09-18T11:11:12;768.70;1971.20
54796;DHT22;40693;43.884;20.340;2023-09-18T11:13:51;768.90;1971.20
54796;DHT22;40693;43.884;20.340;2023-09-18T11:18:53;793.70;1996.80
54796;DHT22;40693;43.884;20.340;2023-09-18T11:21:30;794.00;2022.40
54796;DHT22;40693;43.884;20.340;2023-09-18T11:26:37;794.10;1920.00
54796;DHT22;40693;43.884;20.340;2023-09-18T11:29:07;794.30;1971.20
54796;DHT22;40693;43.884;20.340;2023-09-18T11:31:46;794.40;1920.00
54796;DHT22;40693;43.884;20.340;2023-09-18T11:34:35;819.30;1920.00
54796;DHT22;40693;43.884;20.340;2023-09-18T11:37:22;819.20;1920.00
54796;DHT22;40693;43.884;20.340;2023-09-18T11:39:48;819.30;1894.40
54796;DHT22;40693;43.884;20.340;2023-09-18T11:42:19;819.50;1894.40
54796;DHT22;40693;43.884;20.340;2023-09-18T11:44:47;819.60;1868.80
54796;DHT22;40693;43.884;20.340;2023-09-18T11:47:19;819.60;1843.20
54796;DHT22;40693;43.884;20.340;2023-09-18T11:49:59;819.70;1868.80
54796;DHT22;40693;43.884;20.340;2023-09-18T11:52:29;819.80;1843.20
54796;DHT22;40693;43.884;20.340;2023-09-18T11:54:57;819.90;1868.80
54796;DHT22;40693;43.884;20.340;2023-09-18T11:57:23;819.90;1817.60
54796;DHT22;40693;43.884;20.340;2023-09-18T11:59:49;820.10;1843.20
54796;DHT22;40693;43.884;20.340;2023-09-18T12:02:28;820.10;1843.20
54796;DHT22;40693;43.884;20.340;2023-09-18T12:05:11;844.90;1817.60
54796;DHT22;40693;43.884;20.340;2023-09-18T12:07:40;845.00;1843.20
54796;DHT22;40693;43.884;20.340;2023-09-18T12:10:11;845.20;1817.60
54796;DHT22;40693;43.884;20.340;2023-09-18T12:12:37;845.20;1715.20
54796;DHT22;40693;43.884;20.340;2023-09-18T12:15:03;845.10;1740.80
54796;DHT22;40693;43.884;20.340;2023-09-18T12:17:29;845.20;1715.20
54796;DHT22;40693;43.884;20.340;2023-09-18T12:19:55;845.10;1689.60
54796;DHT22;40693;43.884;20.340;2023-09-18T12:22:28;844.90;1715.20
54796;DHT22;40693;43.884;20.340;2023-09-18T12:25:07;844.90;1740.80
54796;DHT22;40693;43.884;20.340;2023-09-18T12:27:36;844.90;1740.80
54796;DHT22;40693;43.884;20.340;2023-09-18T12:30:03;844.90;1689.60
54796;DHT22;40693;43.884;20.340;2023-09-18T12:32:30;844.80;1689.60
54796;DHT22;40693;43.884;20.340;2023-09-18T12:34:58;820.10;1689.60
54796;DHT22;40693;43.884;20.340;2023-09-18T12:37:25;819.80;1689.60
54796;DHT22;40693;43.884;20.340;2023-09-18T12:39:50;819.80;1689.60
54796;DHT22;40693;43.884;20.340;2023-09-18T12:42:20;820.00;1689.60
54796;DHT22;40693;43.884;20.340;2023-09-18T12:44:47;820.00;1689.60
54796;DHT22;40693;43.884;20.340;2023-09-18T12:47:14;819.90;1689.60
54796;DHT22;40693;43.884;20.340;2023-09-18T12:49:40;820.00;1689.60
54796;DHT22;40693;43.884;20.340;2023-09-18T12:52:06;820.10;1664.00
54796;DHT22;40693;43.884;20.340;2023-09-18T12:54:45;820.10;1689.60
54796;DHT22;40693;43.884;20.340;2023-09-18T12:57:15;820.10;1638.40
54796;DHT22;40693;43.884;20.340;2023-09-18T12:59:41;820.10;1638.40
54796;DHT22;40693;43.884;20.340;2023-09-18T13:02:07;820.10;1664.00
54796;DHT22;40693;43.884;20.340;2023-09-18T13:04:37;820.10;1664.00
54796;DHT22;40693;43.884;20.340;2023-09-18T13:07:08;820.10;1664.00
54796;DHT22;40693;43.884;20.340;2023-09-18T13:09:34;820.00;1638.40
54796;DHT22;40693;43.884;20.340;2023-09-18T13:12:03;819.80;1664.00
54796;DHT22;40693;43.884;20.340;2023-09-18T13:14:29;819.80;1664.00
54796;DHT22;40693;43.884;20.340;2023-09-18T13:17:01;819.90;1664.00
54796;DHT22;40693;43.884;20.340;2023-09-18T13:19:29;819.90;1689.60
54796;DHT22;40693;43.884;20.340;2023-09-18T13:21:55;820.00;1664.00
54796;DHT22;40693;43.884;20.340;2023-09-18T13:24:26;820.00;1638.40
54796;DHT22;40693;43.884;20.340;2023-09-18T13:26:53;820.00;1664.00
54796;DHT22;40693;43.884;20.340;2023-09-18T13:29:19;820.10;1664.00
54796;DHT22;40693;43.884;20.340;2023-09-18T13:34:11;820.10;1612.80
54796;DHT22;40693;43.884;20.340;2023-09-18T13:36:37;820.10;1612.80
54796;DHT22;40693;43.884;20.340;2023-09-18T13:39:03;820.10;1587.20
54796;DHT22;40693;43.884;20.340;2023-09-18T13:41:29;820.10;1587.20
54796;DHT22;40693;43.884;20.340;2023-09-18T13:43:56;820.10;1612.80
54796;DHT22;40693;43.884;20.340;2023-09-18T13:46:22;820.10;1612.80
54796;DHT22;40693;43.884;20.340;2023-09-18T13:48:49;820.10;1587.20
54796;DHT22;40693;43.884;20.340;2023-09-18T13:51:15;820.10;1612.80
54796;DHT22;40693;43.884;20.340;2023-09-18T13:53:40;820.10;1612.80
54796;DHT22;40693;43.884;20.340;2023-09-18T13:56:07;819.90;1587.20
54796;DHT22;40693;43.884;20.340;2023-09-18T13:58:33;819.80;1612.80
54796;DHT22;40693;43.884;20.340;2023-09-18T14:00:59;819.80;1612.80
54796;DHT22;40693;43.884;20.340;2023-09-18T14:03:25;819.70;1612.80
54796;DHT22;40693;43.884;20.340;2023-09-18T14:05:51;819.80;1612.80
54796;DHT22;40693;43.884;20.340;2023-09-18T14:08:17;819.70;1638.40
54796;DHT22;40693;43.884;20.340;2023-09-18T14:10:44;819.70;1638.40
54796;DHT22;40693;43.884;20.340;2023-09-18T14:13:10;819.80;1612.80
54796;DHT22;40693;43.884;20.340;2023-09-18T14:15:35;819.80;1638.40
54796;DHT22;40693;43.884;20.340;2023-09-18T14:18:02;819.90;1612.80
54796;DHT22;40693;43.884;20.340;2023-09-18T14:20:29;820.00;1612.80
54796;DHT22;40693;43.884;20.340;2023-09-18T14:22:54;820.00;1587.20
54796;DHT22;40693;43.884;20.340;2023-09-18T14:25:20;819.90;1612.80
54796;DHT22;40693;43.884;20.340;2023-09-18T14:27:48;819.90;1612.80
54796;DHT22;40693;43.884;20.340;2023-09-18T14:30:14;819.80;1612.80
54796;DHT22;40693;43.884;20.340;2023-09-18T14:32:40;819.80;1612.80
54796;DHT22;40693;43.884;20.340;2023-09-18T14:35:06;819.80;1612.80
54796;DHT22;40693;43.884;20.340;2023-09-18T14:37:36;819.60;1638.40
54796;DHT22;40693;43.884;20.340;2023-09-18T14:40:02;819.40;1638.40
54796;DHT22;40693;43.884;20.340;2023-09-18T14:42:28;819.30;1638.40
54796;DHT22;40693;43.884;20.340;2023-09-18T14:44:53;819.20;1664.00
54796;DHT22;40693;43.884;20.340;2023-09-18T14:47:19;794.50;1664.00
54796;DHT22;40693;43.884;20.340;2023-09-18T14:49:45;794.40;1664.00
54796;DHT22;40693;43.884;20.340;2023-09-18T14:52:13;794.20;1664.00
54796;DHT22;40693;43.884;20.340;2023-09-18T14:54:40;794.20;1664.00
54796;DHT22;40693;43.884;20.340;2023-09-18T14:57:06;794.20;1715.20